createdAt,value
2023-02-28T00:00:01.829Z,100925.78
2023-02-28T00:02:34.468Z,100932.44
2023-02-28T00:05:04.337Z,100931.59
2023-02-28T00:07:34.027Z,100934.72
2023-02-28T00:10:03.751Z,100918.00
2023-02-28T00:12:36.246Z,100924.25
2023-02-28T00:15:06.562Z,100930.69
2023-02-28T00:17:36.308Z,100928.88
2023-02-28T00:20:09.197Z,100930.16
2023-02-28T00:22:38.793Z,100930.22
2023-02-28T00:25:10.631Z,100930.75
2023-02-28T00:27:43.581Z,100927.59
2023-02-28T00:30:16.530Z,100926.25
2023-02-28T00:32:46.700Z,100925.44
2023-02-28T00:35:16.769Z,100925.84
2023-02-28T00:37:46.845Z,100935.13
2023-02-28T00:40:16.500Z,100933.22
2023-02-28T00:42:48.717Z,100931.72
2023-02-28T00:45:18.474Z,100928.47
2023-02-28T00:47:50.585Z,100934.75
2023-02-28T00:50:21.948Z,100936.00
2023-02-28T00:52:51.982Z,100945.03
2023-02-28T00:55:21.578Z,100942.09
2023-02-28T00:57:54.153Z,100939.91
2023-02-28T01:00:24.190Z,100936.50
2023-02-28T01:02:53.891Z,100938.06
2023-02-28T01:05:23.492Z,100930.41
2023-02-28T01:07:53.110Z,100940.41
2023-02-28T01:10:22.888Z,100937.19
2023-02-28T01:12:55.042Z,100933.25
2023-02-28T01:15:24.635Z,100925.78
2023-02-28T01:17:54.260Z,100934.34
2023-02-28T01:20:25.298Z,100934.31
2023-02-28T01:22:55.007Z,100931.97
2023-02-28T01:25:25.253Z,100939.94
2023-02-28T01:27:57.611Z,100938.72
2023-02-28T01:30:27.189Z,100937.03
2023-02-28T01:32:57.002Z,100932.13
2023-02-28T01:35:28.906Z,100941.09
2023-02-28T01:38:04.801Z,100930.63
2023-02-28T01:40:42.178Z,100925.19
2023-02-28T01:43:23.751Z,100928.94
2023-02-28T01:45:53.583Z,100921.53
2023-02-28T01:48:27.896Z,100921.31
2023-02-28T01:51:02.356Z,100915.88
2023-02-28T01:53:38.485Z,100921.47
2023-02-28T01:56:11.003Z,100925.38
2023-02-28T01:58:43.605Z,100921.88
2023-02-28T02:01:22.695Z,100920.34
2023-02-28T02:03:56.490Z,100915.53
2023-02-28T02:06:31.738Z,100917.75
2023-02-28T02:09:01.675Z,100914.28
2023-02-28T02:11:31.606Z,100915.09
2023-02-28T02:14:29.901Z,100903.66
2023-02-28T02:17:22.140Z,100908.31
2023-02-28T02:20:24.517Z,100911.59
2023-02-28T02:23:17.704Z,100911.19
2023-02-28T02:25:53.259Z,100914.00
2023-02-28T02:29:00.454Z,100914.25
2023-02-28T02:32:01.482Z,100908.78
2023-02-28T02:34:46.084Z,100905.81
2023-02-28T02:37:25.751Z,100906.94
2023-02-28T02:40:02.029Z,100909.66
2023-02-28T02:42:43.699Z,100898.56
2023-02-28T02:45:19.627Z,100900.63
2023-02-28T02:47:50.653Z,100895.94
2023-02-28T02:50:27.810Z,100900.94
2023-02-28T02:53:05.748Z,100896.03
2023-02-28T02:55:40.417Z,100904.84
2023-02-28T02:58:15.178Z,100910.31
2023-02-28T03:00:50.206Z,100908.78
2023-02-28T03:03:30.093Z,100906.50
2023-02-28T03:06:05.018Z,100911.56
2023-02-28T03:08:38.800Z,100905.47
2023-02-28T03:11:13.327Z,100914.00
2023-02-28T03:14:18.443Z,100914.59
2023-02-28T03:17:04.062Z,100919.72
2023-02-28T03:19:51.171Z,100924.84
2023-02-28T03:22:52.051Z,100923.25
2023-02-28T03:25:30.890Z,100928.44
2023-02-28T03:28:09.133Z,100920.19
2023-02-28T03:30:48.312Z,100926.84
2023-02-28T03:33:24.138Z,100930.00
2023-02-28T03:35:58.058Z,100930.03
2023-02-28T03:38:35.371Z,100925.97
2023-02-28T03:41:10.049Z,100924.16
2023-02-28T03:43:45.304Z,100928.88
2023-02-28T03:46:22.179Z,100920.09
2023-02-28T03:48:57.467Z,100914.19
2023-02-28T03:51:29.596Z,100920.06
2023-02-28T03:54:09.301Z,100928.28
2023-02-28T03:56:44.477Z,100923.47
2023-02-28T03:59:20.229Z,100924.88
2023-02-28T04:01:51.181Z,100917.84
2023-02-28T04:04:21.616Z,100917.91
2023-02-28T04:06:54.203Z,100918.44
2023-02-28T04:09:26.373Z,100922.25
2023-02-28T04:11:56.696Z,100932.50
2023-02-28T04:14:26.430Z,100927.88
2023-02-28T04:16:56.056Z,100917.34
2023-02-28T04:19:25.624Z,100926.94
2023-02-28T04:21:57.007Z,100925.31
2023-02-28T04:24:31.346Z,100918.41
2023-02-28T04:27:02.005Z,100926.03
2023-02-28T04:29:33.582Z,100925.09
2023-02-28T04:32:04.605Z,100930.53
2023-02-28T04:34:35.657Z,100928.47
2023-02-28T04:37:13.431Z,100925.84
2023-02-28T04:39:46.694Z,100924.69
2023-02-28T04:42:16.648Z,100933.44
2023-02-28T04:44:46.316Z,100932.53
2023-02-28T04:47:15.918Z,100924.47
2023-02-28T04:49:45.499Z,100926.25
2023-02-28T04:52:15.098Z,100926.03
2023-02-28T04:54:47.232Z,100931.19
2023-02-28T04:57:16.853Z,100929.59
2023-02-28T04:59:46.465Z,100930.69
2023-02-28T05:02:16.066Z,100930.69
2023-02-28T05:04:45.767Z,100935.78
2023-02-28T05:07:15.380Z,100929.72
2023-02-28T05:09:47.578Z,100934.84
2023-02-28T05:12:17.226Z,100931.13
2023-02-28T05:14:46.791Z,100932.28
2023-02-28T05:17:16.324Z,100933.75
2023-02-28T05:19:45.881Z,100946.84
2023-02-28T05:22:20.043Z,100934.72
2023-02-28T05:24:52.430Z,100939.91
2023-02-28T05:27:22.153Z,100937.59
2023-02-28T05:29:51.746Z,100930.81
2023-02-28T05:32:21.563Z,100938.50
2023-02-28T05:34:51.204Z,100936.06
2023-02-28T05:37:22.650Z,100932.34
2023-02-28T05:39:54.884Z,100936.06
2023-02-28T05:42:24.488Z,100942.03
2023-02-28T05:44:54.100Z,100937.97
2023-02-28T05:47:23.752Z,100952.34
2023-02-28T05:49:53.330Z,100939.59
2023-02-28T05:52:22.914Z,100949.25
2023-02-28T05:54:55.066Z,100949.38
2023-02-28T05:57:25.013Z,100956.03
2023-02-28T05:59:54.994Z,100957.63
2023-02-28T06:02:24.774Z,100959.63
2023-02-28T06:04:54.454Z,100957.72
2023-02-28T06:07:24.011Z,100962.38
2023-02-28T06:09:56.202Z,100965.53
2023-02-28T06:12:25.804Z,100956.72
2023-02-28T06:14:55.399Z,100959.19
2023-02-28T06:17:24.960Z,100957.19
2023-02-28T06:19:54.646Z,100956.66
2023-02-28T06:22:24.375Z,100961.81
2023-02-28T06:24:58.060Z,100954.81
2023-02-28T06:27:27.717Z,100965.50
2023-02-28T06:29:58.457Z,100958.91
2023-02-28T06:32:28.194Z,100972.28
2023-02-28T06:34:59.072Z,100974.25
2023-02-28T06:37:29.771Z,100978.94
2023-02-28T06:40:01.997Z,100984.06
2023-02-28T06:42:33.387Z,100982.94
2023-02-28T06:45:04.404Z,100979.19
2023-02-28T06:47:34.964Z,100986.34
2023-02-28T06:50:04.697Z,100987.53
2023-02-28T06:52:37.269Z,100993.03
2023-02-28T06:55:11.499Z,100990.81
2023-02-28T06:57:42.016Z,100997.19
2023-02-28T07:00:13.804Z,100991.63
2023-02-28T07:02:43.353Z,100996.94
2023-02-28T07:05:13.012Z,100999.28
2023-02-28T07:07:45.377Z,100994.25
2023-02-28T07:10:20.293Z,101000.63
2023-02-28T07:12:50.079Z,100997.03
2023-02-28T07:15:19.876Z,100993.41
2023-02-28T07:17:49.466Z,100991.00
2023-02-28T07:20:19.723Z,100996.41
2023-02-28T07:22:56.180Z,100992.06
2023-02-28T07:25:29.873Z,101003.50
2023-02-28T07:28:01.283Z,100999.56
2023-02-28T07:30:30.918Z,100999.81
2023-02-28T07:33:00.467Z,101007.03
2023-02-28T07:35:30.123Z,101007.47
2023-02-28T07:38:01.817Z,101008.19
2023-02-28T07:40:34.116Z,101014.97
2023-02-28T07:43:04.345Z,101009.44
2023-02-28T07:45:35.591Z,101005.38
2023-02-28T07:48:05.977Z,101013.84
2023-02-28T07:50:35.733Z,101007.81
2023-02-28T07:53:05.640Z,101017.34
2023-02-28T07:55:37.805Z,101017.00
2023-02-28T07:58:07.388Z,101021.94
2023-02-28T08:00:37.097Z,101026.63
2023-02-28T08:03:06.972Z,101007.31
2023-02-28T08:05:36.565Z,101017.00
2023-02-28T08:08:06.285Z,101028.69
2023-02-28T08:10:38.700Z,101021.72
2023-02-28T08:13:08.258Z,101025.41
2023-02-28T08:15:37.889Z,101027.56
2023-02-28T08:18:08.499Z,101025.94
2023-02-28T08:20:40.875Z,101023.06
2023-02-28T08:23:10.447Z,101015.88
2023-02-28T08:25:42.634Z,101029.22
2023-02-28T08:28:12.198Z,101020.00
2023-02-28T08:30:42.143Z,101020.91
2023-02-28T08:33:11.777Z,101019.19
2023-02-28T08:35:41.412Z,101025.31
2023-02-28T08:38:11.260Z,101023.91
2023-02-28T08:40:43.830Z,101034.53
2023-02-28T08:43:13.451Z,101024.38
2023-02-28T08:45:43.057Z,101025.03
2023-02-28T08:48:12.658Z,101028.66
2023-02-28T08:50:43.053Z,101029.59
2023-02-28T08:53:13.701Z,101034.16
2023-02-28T08:55:46.183Z,101037.41
2023-02-28T08:58:15.777Z,101026.75
2023-02-28T09:00:45.468Z,101026.63
2023-02-28T09:03:15.089Z,101031.81
2023-02-28T09:05:44.648Z,101035.38
2023-02-28T09:08:14.208Z,101030.84
2023-02-28T09:10:46.372Z,101034.22
2023-02-28T09:13:15.929Z,101030.19
2023-02-28T09:15:45.544Z,101032.38
2023-02-28T09:18:15.739Z,101025.94
2023-02-28T09:20:46.749Z,101021.06
2023-02-28T09:23:16.837Z,101028.47
2023-02-28T09:25:53.288Z,101030.97
2023-02-28T09:28:23.807Z,101028.50
2023-02-28T09:30:55.456Z,101031.69
2023-02-28T09:33:25.664Z,101035.00
2023-02-28T09:36:02.166Z,101023.41
2023-02-28T09:38:32.266Z,101029.50
2023-02-28T09:41:07.399Z,101023.72
2023-02-28T09:43:39.761Z,101018.34
2023-02-28T09:46:18.288Z,101025.16
2023-02-28T09:48:50.789Z,101028.25
2023-02-28T09:51:34.140Z,101035.84
2023-02-28T09:54:04.007Z,101043.47
2023-02-28T09:56:40.335Z,101035.97
2023-02-28T09:59:19.628Z,101038.25
2023-02-28T10:01:56.999Z,101040.06
2023-02-28T10:04:44.122Z,101031.09
2023-02-28T10:07:26.405Z,101043.97
2023-02-28T10:09:59.066Z,101035.97
2023-02-28T10:12:33.536Z,101032.19
2023-02-28T10:15:05.052Z,101031.97
2023-02-28T10:17:54.925Z,101038.81
2023-02-28T10:20:33.762Z,101031.00
2023-02-28T10:23:09.018Z,101039.13
2023-02-28T10:25:41.124Z,101035.22
2023-02-28T10:28:18.933Z,101032.28
2023-02-28T10:30:51.766Z,101022.59
2023-02-28T10:33:25.660Z,101049.00
2023-02-28T10:35:56.400Z,101036.50
2023-02-28T10:38:28.575Z,101023.41
2023-02-28T10:41:08.644Z,101042.88
2023-02-28T10:43:42.232Z,101031.19
2023-02-28T10:46:26.845Z,101029.44
2023-02-28T10:49:07.765Z,101029.53
2023-02-28T10:51:43.200Z,101025.09
2023-02-28T10:54:20.519Z,101023.06
2023-02-28T10:57:10.160Z,101024.69
2023-02-28T10:59:42.322Z,101013.16
2023-02-28T11:05:32.487Z,101018.47
2023-02-28T11:08:09.891Z,101021.19
2023-02-28T11:10:40.132Z,101013.91
2023-02-28T11:13:10.456Z,101011.94
2023-02-28T11:15:42.647Z,101016.28
2023-02-28T11:18:27.213Z,101017.03
2023-02-28T11:21:00.015Z,100998.53
2023-02-28T11:23:33.017Z,100989.06
2023-02-28T11:26:05.745Z,101001.78
2023-02-28T11:28:38.243Z,100993.81
2023-02-28T11:31:23.382Z,101003.31
2023-02-28T11:33:54.511Z,100990.69
2023-02-28T11:36:27.857Z,100996.56
2023-02-28T11:39:02.810Z,100994.56
2023-02-28T11:41:44.095Z,100995.75
2023-02-28T11:44:37.990Z,100990.81
2023-02-28T11:47:18.080Z,100987.25
2023-02-28T11:49:56.081Z,100986.56
2023-02-28T11:52:39.562Z,100982.19
2023-02-28T11:55:18.281Z,100980.31
2023-02-28T11:58:13.252Z,100969.78
2023-02-28T12:00:56.734Z,100968.28
2023-02-28T12:03:36.149Z,100977.06
2023-02-28T12:06:19.735Z,100973.50
2023-02-28T12:09:01.463Z,100981.25
2023-02-28T12:11:43.609Z,100974.41
2023-02-28T12:14:39.325Z,100987.06
2023-02-28T12:17:23.019Z,100972.72
2023-02-28T12:20:04.176Z,100967.47
2023-02-28T12:22:35.823Z,100975.97
2023-02-28T12:25:42.096Z,100967.91
2023-02-28T12:28:13.345Z,100967.56
2023-02-28T12:30:50.462Z,100971.75
2023-02-28T12:33:26.297Z,100957.91
2023-02-28T12:36:00.514Z,100966.75
2023-02-28T12:38:37.436Z,100958.25
2023-02-28T12:41:12.967Z,100963.72
2023-02-28T12:43:48.258Z,100964.19
2023-02-28T12:46:24.207Z,100956.59
2023-02-28T12:48:57.704Z,100951.78
2023-02-28T12:51:31.674Z,100948.06
2023-02-28T12:54:10.960Z,100953.22
2023-02-28T12:56:47.989Z,100951.41
2023-02-28T12:59:26.172Z,100953.00
2023-02-28T13:02:04.859Z,100941.44
2023-02-28T13:04:56.341Z,100938.28
2023-02-28T13:07:59.394Z,100951.03
2023-02-28T13:10:42.756Z,100927.13
2023-02-28T13:13:18.713Z,100925.00
2023-02-28T13:16:07.250Z,100930.78
2023-02-28T13:18:40.797Z,100925.94
2023-02-28T13:21:12.528Z,100925.44
2023-02-28T13:24:04.063Z,100917.81
2023-02-28T13:27:03.882Z,100910.19
2023-02-28T13:29:37.221Z,100906.13
2023-02-28T13:32:23.387Z,100907.66
2023-02-28T13:35:31.816Z,100904.41
2023-02-28T13:38:20.385Z,100906.56
2023-02-28T13:40:52.586Z,100906.38
2023-02-28T13:43:34.685Z,100889.41
2023-02-28T13:46:16.140Z,100893.09
2023-02-28T13:48:45.998Z,100890.75
2023-02-28T13:51:43.463Z,100897.91
2023-02-28T13:54:36.808Z,100894.72
2023-02-28T13:57:27.286Z,100891.81
2023-02-28T14:00:09.731Z,100886.59
2023-02-28T14:02:54.613Z,100897.38
2023-02-28T14:05:27.228Z,100896.50
2023-02-28T14:08:00.612Z,100896.91
2023-02-28T14:10:33.634Z,100897.13
2023-02-28T14:13:15.298Z,100900.13
2023-02-28T14:15:49.492Z,100901.50
2023-02-28T14:18:27.291Z,100907.66
2023-02-28T14:21:02.280Z,100912.72
2023-02-28T14:24:20.564Z,100904.38
2023-02-28T14:27:31.908Z,100908.34
2023-02-28T14:30:30.004Z,100906.72
2023-02-28T14:33:16.657Z,100899.13
2023-02-28T14:36:10.959Z,100903.88
2023-02-28T14:38:47.078Z,100908.84
2023-02-28T14:41:22.416Z,100904.97
2023-02-28T14:43:54.554Z,100889.56
2023-02-28T14:46:30.894Z,100894.94
2023-02-28T14:49:00.884Z,100891.75
2023-02-28T14:51:31.505Z,100887.63
2023-02-28T14:54:05.368Z,100887.69
2023-02-28T14:56:39.353Z,100888.47
2023-02-28T14:59:26.790Z,100895.59
2023-02-28T15:02:20.999Z,100892.97
2023-02-28T15:04:58.471Z,100892.47
2023-02-28T15:07:32.177Z,100885.47
2023-02-28T15:10:21.226Z,100883.13
2023-02-28T15:12:57.430Z,100888.84
2023-02-28T15:15:36.081Z,100889.31
2023-02-28T15:18:19.986Z,100882.06
2023-02-28T15:20:49.873Z,100869.81
2023-02-28T15:23:20.480Z,100874.56
2023-02-28T15:25:50.632Z,100890.66
2023-02-28T15:28:23.751Z,100887.75
2023-02-28T15:30:59.632Z,100881.38
2023-02-28T15:33:32.845Z,100874.06
2023-02-28T15:36:18.544Z,100878.38
2023-02-28T15:38:48.175Z,100873.97
2023-02-28T15:41:28.694Z,100875.81
2023-02-28T15:44:30.842Z,100867.34
2023-02-28T15:47:06.509Z,100872.50
2023-02-28T15:49:45.290Z,100863.31
2023-02-28T15:52:20.352Z,100870.13
2023-02-28T15:54:51.280Z,100866.69
2023-02-28T15:57:24.457Z,100866.75
2023-02-28T15:59:57.750Z,100869.50
2023-02-28T16:02:35.534Z,100865.13
2023-02-28T16:05:29.135Z,100863.53
2023-02-28T16:08:00.137Z,100872.72
2023-02-28T16:10:32.146Z,100867.28
2023-02-28T16:13:01.899Z,100875.59
2023-02-28T16:15:34.623Z,100872.78
2023-02-28T16:18:04.306Z,100876.84
2023-02-28T16:20:36.452Z,100875.97
2023-02-28T16:23:06.109Z,100872.06
2023-02-28T16:25:40.394Z,100864.81
2023-02-28T16:28:18.118Z,100875.09
2023-02-28T16:30:47.791Z,100875.50
2023-02-28T16:33:17.445Z,100871.56
2023-02-28T16:35:49.739Z,100861.22
2023-02-28T16:38:19.517Z,100871.03
2023-02-28T16:40:49.252Z,100882.19
2023-02-28T16:43:22.719Z,100890.88
2023-02-28T16:45:52.357Z,100882.91
2023-02-28T16:48:21.957Z,100881.06
2023-02-28T16:50:54.937Z,100891.00
2023-02-28T16:53:24.673Z,100894.22
2023-02-28T16:55:54.524Z,100887.78
2023-02-28T16:58:26.598Z,100892.06
2023-02-28T17:00:56.198Z,100897.88
2023-02-28T17:03:33.460Z,100901.75
2023-02-28T17:06:08.666Z,100914.78
2023-02-28T17:08:38.253Z,100915.69
2023-02-28T17:11:08.318Z,100923.53
2023-02-28T17:13:37.876Z,100914.16
2023-02-28T17:16:08.933Z,100928.63
2023-02-28T17:18:40.033Z,100928.19
2023-02-28T17:21:17.168Z,100926.59
2023-02-28T17:23:47.201Z,100925.34
2023-02-28T17:26:20.936Z,100930.13
2023-02-28T17:28:51.953Z,100926.09
2023-02-28T17:31:22.183Z,100925.19
2023-02-28T17:33:51.909Z,100928.13
2023-02-28T17:36:26.891Z,100935.91
2023-02-28T17:38:59.549Z,100935.09
2023-02-28T17:41:31.432Z,100931.75
2023-02-28T17:44:01.141Z,100933.91
2023-02-28T17:46:31.123Z,100917.69
2023-02-28T17:49:01.000Z,100923.28
2023-02-28T17:51:33.256Z,100940.72
2023-02-28T17:54:03.286Z,100934.19
2023-02-28T17:56:33.189Z,100929.94
2023-02-28T17:59:03.038Z,100932.63
2023-02-28T18:01:32.718Z,100924.91
2023-02-28T18:04:02.368Z,100923.53
2023-02-28T18:06:48.707Z,100922.44
2023-02-28T18:09:22.605Z,100913.88
2023-02-28T18:11:52.724Z,100921.03
2023-02-28T18:14:26.395Z,100911.69
2023-02-28T18:16:57.623Z,100916.13
2023-02-28T18:19:27.549Z,100917.84
2023-02-28T18:21:59.750Z,100921.31
2023-02-28T18:24:29.356Z,100923.91
2023-02-28T18:26:58.987Z,100916.47
2023-02-28T18:29:31.815Z,100921.81
2023-02-28T18:32:02.438Z,100928.44
2023-02-28T18:34:33.052Z,100928.75
2023-02-28T18:37:05.242Z,100920.50
2023-02-28T18:39:35.094Z,100925.91
2023-02-28T18:42:04.740Z,100930.47
2023-02-28T18:44:34.322Z,100925.47
2023-02-28T18:47:04.084Z,100923.72
2023-02-28T18:49:35.806Z,100927.63
2023-02-28T18:52:08.106Z,100927.38
2023-02-28T18:54:38.595Z,100928.19
2023-02-28T18:57:08.419Z,100926.91
2023-02-28T18:59:38.026Z,100921.69
2023-02-28T19:02:07.700Z,100918.97
2023-02-28T19:04:37.425Z,100912.59
2023-02-28T19:07:09.774Z,100915.19
2023-02-28T19:09:39.779Z,100916.06
2023-02-28T19:12:09.809Z,100922.19
2023-02-28T19:14:39.431Z,100917.88
2023-02-28T19:17:09.050Z,100919.78
2023-02-28T19:19:38.772Z,100921.06
2023-02-28T19:22:11.116Z,100920.88
2023-02-28T19:24:41.004Z,100918.84
2023-02-28T19:27:10.652Z,100916.72
2023-02-28T19:29:40.451Z,100909.16
2023-02-28T19:32:10.140Z,100912.66
2023-02-28T19:34:39.802Z,100918.03
2023-02-28T19:37:12.921Z,100920.72
2023-02-28T19:39:45.267Z,100921.84
2023-02-28T19:42:17.115Z,100928.91
2023-02-28T19:44:47.684Z,100932.25
2023-02-28T19:47:17.365Z,100924.47
2023-02-28T19:49:46.913Z,100923.28
2023-02-28T19:52:19.323Z,100929.69
2023-02-28T19:54:49.100Z,100920.03
2023-02-28T19:57:18.848Z,100924.56
2023-02-28T19:59:49.229Z,100923.38
2023-02-28T20:02:21.767Z,100927.28
2023-02-28T20:04:54.387Z,100923.22
2023-02-28T20:07:26.655Z,100925.47
2023-02-28T20:09:56.340Z,100928.72
2023-02-28T20:12:26.283Z,100933.31
2023-02-28T20:14:57.215Z,100929.84
2023-02-28T20:17:27.358Z,100930.16
2023-02-28T20:19:56.904Z,100931.66
2023-02-28T20:22:29.230Z,100942.31
2023-02-28T20:24:58.768Z,100947.97
2023-02-28T20:27:28.393Z,100951.22
2023-02-28T20:29:58.244Z,100949.19
2023-02-28T20:32:28.753Z,100949.50
2023-02-28T20:34:58.550Z,100960.41
2023-02-28T20:37:31.000Z,100953.03
2023-02-28T20:40:00.611Z,100957.47
2023-02-28T20:42:30.177Z,100957.50
2023-02-28T20:44:59.722Z,100955.66
2023-02-28T20:47:29.506Z,100957.19
2023-02-28T20:49:59.109Z,100944.03
2023-02-28T20:52:31.301Z,100961.09
2023-02-28T20:55:00.966Z,100956.50
2023-02-28T20:57:31.855Z,100954.59
2023-02-28T21:00:01.740Z,100952.69
2023-02-28T21:02:31.582Z,100951.34
2023-02-28T21:05:01.158Z,100955.50
2023-02-28T21:07:33.343Z,100949.88
2023-02-28T21:10:02.891Z,100954.56
2023-02-28T21:12:32.452Z,100954.50
2023-02-28T21:15:02.117Z,100953.75
2023-02-28T21:17:31.863Z,100954.88
2023-02-28T21:20:01.474Z,100955.69
2023-02-28T21:22:33.684Z,100960.31
2023-02-28T21:25:03.291Z,100954.22
2023-02-28T21:27:32.861Z,100951.44
2023-02-28T21:30:04.583Z,100952.69
2023-02-28T21:32:34.243Z,100955.00
2023-02-28T21:35:03.831Z,100962.09
2023-02-28T21:37:36.106Z,100966.25
2023-02-28T21:40:05.717Z,100958.88
2023-02-28T21:42:35.416Z,100966.66
2023-02-28T21:45:05.031Z,100964.25
2023-02-28T21:47:34.590Z,100961.63
2023-02-28T21:50:04.266Z,100959.50
2023-02-28T21:52:36.441Z,100964.03
2023-02-28T21:55:06.434Z,100964.72
2023-02-28T21:57:36.365Z,100962.94
2023-02-28T22:00:07.820Z,100955.16
2023-02-28T22:02:41.871Z,100954.03
2023-02-28T22:05:12.122Z,100958.84
2023-02-28T22:07:44.450Z,100950.97
2023-02-28T22:10:14.417Z,100942.06
2023-02-28T22:12:44.007Z,100949.28
2023-02-28T22:15:15.029Z,100946.75
2023-02-28T22:17:45.316Z,100954.03
2023-02-28T22:20:15.483Z,100943.47
2023-02-28T22:22:47.931Z,100954.75
2023-02-28T22:25:17.725Z,100949.75
2023-02-28T22:27:47.366Z,100939.41
2023-02-28T22:30:17.575Z,100934.78
2023-02-28T22:32:47.160Z,100943.56
2023-02-28T22:35:19.523Z,100931.63
2023-02-28T22:37:53.007Z,100925.19
2023-02-28T22:40:22.960Z,100938.81
2023-02-28T22:42:52.522Z,100938.75
2023-02-28T22:45:22.091Z,100936.38
2023-02-28T22:47:51.837Z,100947.84
2023-02-28T22:50:21.793Z,100942.19
2023-02-28T22:52:54.057Z,100938.59
2023-02-28T22:55:23.596Z,100943.53
2023-02-28T22:57:53.204Z,100947.56
2023-02-28T23:00:24.036Z,100939.78
2023-02-28T23:02:53.635Z,100941.47
2023-02-28T23:05:23.289Z,100953.47
2023-02-28T23:07:56.100Z,100939.28
2023-02-28T23:10:25.664Z,100940.91
2023-02-28T23:12:55.237Z,100945.28
2023-02-28T23:15:24.966Z,100946.25
2023-02-28T23:17:54.857Z,100952.31
2023-02-28T23:20:24.718Z,100944.84
2023-02-28T23:22:56.842Z,100945.66
2023-02-28T23:25:26.453Z,100944.28
2023-02-28T23:27:56.046Z,100949.50
2023-02-28T23:30:25.678Z,100949.59
2023-02-28T23:32:55.358Z,100945.53
2023-02-28T23:35:24.928Z,100962.34
2023-02-28T23:37:59.366Z,100958.66
2023-02-28T23:40:29.514Z,100960.34
2023-02-28T23:42:59.338Z,100964.94
2023-02-28T23:45:28.967Z,100959.94
2023-02-28T23:47:58.621Z,100966.78
2023-02-28T23:50:28.490Z,100965.47
2023-02-28T23:53:00.687Z,100966.97
2023-02-28T23:55:30.685Z,100963.81
2023-02-28T23:58:00.280Z,100962.50
